Terminal Aerodrome Forecast
Issued by NWS Amarillo, TX

Home | Current Version | Previous Version | Text Only | Print | Product List | Glossary On
Versions: 1 2 3 4 5 6 7 8 9 10 11 12 13 14
000
FTUS44 KAMA 070300 AAB
TAFDHT
TAF AMD
KDHT 070352Z 0704/0724 01018G28KT P6SM OVC030
      TEMPO 0704/0705 5SM -SHRA OVC020
     FM070500 03016KT 5SM -TSRA OVC025CB
      TEMPO 0705/0709 2SM TSRA BR OVC015CB
     FM070900 02013KT 4SM -SHRA BR OVC020
     FM071600 06011KT P6SM OVC060 PROB30 0716/0722 5SM -TSRA
      OVC040CB=

USA.gov is the U.S. government's official web portal to all federal, state and local government web resources and services.